Time,TemperatureF,DewpointF,PressureIn,WindDirection,WindDirectionDegrees,WindSpeedMPH,WindSpeedGustMPH,Humidity,HourlyPrecipIn,Conditions,Clouds,dailyrainin,SoftwareType,DateUTC
2013-05-26 00:01:00,55.4,26.7,29.58,SSW,205,0.0,0.0,33,0.00,,,0.00,Wunderground v.1.15,2013-05-26 06:01:00,
2013-05-26 00:06:00,54.5,26.7,29.58,SSW,205,0.0,0.0,34,0.00,,,0.00,Wunderground v.1.15,2013-05-26 06:06:00,
2013-05-26 00:11:00,53.6,27.9,29.59,SSW,205,0.0,0.0,37,0.00,,,0.00,Wunderground v.1.15,2013-05-26 06:11:00,
2013-05-26 00:16:00,52.9,28.0,29.59,SSW,205,0.0,0.0,38,0.00,,,0.00,Wunderground v.1.15,2013-05-26 06:16:00,
2013-05-26 00:21:00,52.2,29.2,29.59,SSW,205,0.0,0.0,41,0.00,,,0.00,Wunderground v.1.15,2013-05-26 06:21:00,
2013-05-26 00:26:00,51.4,28.5,29.59,SSW,205,0.0,0.0,41,0.00,,,0.00,Wunderground v.1.15,2013-05-26 06:26:00,
2013-05-26 00:31:00,51.1,28.8,29.59,SSW,205,0.0,0.0,42,0.00,,,0.00,Wunderground v.1.15,2013-05-26 06:31:00,
2013-05-26 00:36:00,51.3,27.2,29.59,SSW,205,0.0,0.0,39,0.00,,,0.00,Wunderground v.1.15,2013-05-26 06:36:00,
2013-05-26 00:41:00,51.0,28.1,29.60,SSW,205,0.0,0.0,41,0.00,,,0.00,Wunderground v.1.15,2013-05-26 06:41:00,
2013-05-26 00:46:00,50.4,27.6,29.60,SSW,205,0.0,0.0,41,0.00,,,0.00,Wunderground v.1.15,2013-05-26 06:46:00,
2013-05-26 00:51:00,50.1,27.9,29.60,SSW,205,1.0,2.0,42,0.00,,,0.00,Wunderground v.1.15,2013-05-26 06:51:00,
2013-05-26 00:56:00,50.5,27.0,29.60,SSW,205,1.0,2.0,40,0.00,,,0.00,Wunderground v.1.15,2013-05-26 06:56:00,
2013-05-26 01:01:00,51.0,28.1,29.60,SSW,205,0.0,0.0,41,0.00,,,0.00,Wunderground v.1.15,2013-05-26 07:01:00,
2013-05-26 01:06:00,51.1,27.0,29.60,SSW,205,0.0,3.0,39,0.00,,,0.00,Wunderground v.1.15,2013-05-26 07:06:00,
2013-05-26 01:11:00,51.3,26.5,29.59,SSW,205,0.0,0.0,38,0.00,,,0.00,Wunderground v.1.15,2013-05-26 07:11:00,
2013-05-26 01:16:00,51.7,27.5,29.59,SSW,205,0.0,4.0,39,0.00,,,0.00,Wunderground v.1.15,2013-05-26 07:16:00,
2013-05-26 01:21:00,51.6,27.4,29.59,SSW,205,0.0,0.0,39,0.00,,,0.00,Wunderground v.1.15,2013-05-26 07:21:00,
2013-05-26 01:26:00,50.5,29.9,29.59,SSW,205,0.0,2.0,45,0.00,,,0.00,Wunderground v.1.15,2013-05-26 07:26:00,
2013-05-26 01:31:00,49.9,31.5,29.59,SSW,205,0.0,0.0,49,0.00,,,0.00,Wunderground v.1.15,2013-05-26 07:31:00,
2013-05-26 01:36:00,49.2,29.3,29.59,SSW,205,0.0,0.0,46,0.00,,,0.00,Wunderground v.1.15,2013-05-26 07:36:00,
2013-05-26 01:41:00,48.6,28.2,29.59,SSW,205,0.0,0.0,45,0.00,,,0.00,Wunderground v.1.15,2013-05-26 07:41:00,
2013-05-26 01:47:00,48.3,30.0,29.59,SSW,205,0.0,0.0,49,0.00,,,0.00,Wunderground v.1.15,2013-05-26 07:47:00,
2013-05-26 01:52:00,47.9,28.6,29.59,SSW,205,0.0,0.0,47,0.00,,,0.00,Wunderground v.1.15,2013-05-26 07:52:00,
2013-05-26 01:57:00,47.3,29.1,29.60,SSW,205,0.0,0.0,49,0.00,,,0.00,Wunderground v.1.15,2013-05-26 07:57:00,
2013-05-26 02:02:00,46.7,29.0,29.60,SSW,205,0.0,0.0,50,0.00,,,0.00,Wunderground v.1.15,2013-05-26 08:02:00,
2013-05-26 02:07:00,46.1,29.4,29.60,SSW,205,0.0,0.0,52,0.00,,,0.00,Wunderground v.1.15,2013-05-26 08:07:00,
2013-05-26 02:12:00,45.8,30.1,29.62,SSW,205,0.0,0.0,54,0.00,,,0.00,Wunderground v.1.15,2013-05-26 08:12:00,
2013-05-26 02:17:00,45.5,30.7,29.62,SSW,205,0.0,0.0,56,0.00,,,0.00,Wunderground v.1.15,2013-05-26 08:17:00,
2013-05-26 02:22:00,44.9,29.2,29.62,SSW,205,0.0,0.0,54,0.00,,,0.00,Wunderground v.1.15,2013-05-26 08:22:00,
2013-05-26 02:27:00,44.2,29.0,29.61,SSW,205,0.0,0.0,55,0.00,,,0.00,Wunderground v.1.15,2013-05-26 08:27:00,
2013-05-26 02:32:00,44.1,29.8,29.61,SSW,205,0.0,0.0,57,0.00,,,0.00,Wunderground v.1.15,2013-05-26 08:32:00,
2013-05-26 02:37:00,44.1,30.3,29.61,SSW,205,0.0,0.0,58,0.00,,,0.00,Wunderground v.1.15,2013-05-26 08:37:00,
2013-05-26 02:42:00,43.9,30.1,29.63,SSW,205,0.0,0.0,58,0.00,,,0.00,Wunderground v.1.15,2013-05-26 08:42:00,
2013-05-26 02:47:00,43.8,30.4,29.63,SSW,205,0.0,0.0,59,0.00,,,0.00,Wunderground v.1.15,2013-05-26 08:47:00,
2013-05-26 02:52:00,43.3,29.5,29.63,SSW,205,0.0,0.0,58,0.00,,,0.00,Wunderground v.1.15,2013-05-26 08:52:00,
2013-05-26 02:57:00,42.9,29.5,29.64,SSW,205,0.0,0.0,59,0.00,,,0.00,Wunderground v.1.15,2013-05-26 08:57:00,
2013-05-26 03:02:00,42.6,29.7,29.64,SSW,205,0.0,0.0,60,0.00,,,0.00,Wunderground v.1.15,2013-05-26 09:02:00,
2013-05-26 03:07:00,42.5,30.4,29.64,SSW,205,0.0,0.0,62,0.00,,,0.00,Wunderground v.1.15,2013-05-26 09:07:00,
2013-05-26 03:12:00,42.5,30.4,29.64,SSW,205,0.0,0.0,62,0.00,,,0.00,Wunderground v.1.15,2013-05-26 09:12:00,
2013-05-26 03:17:00,42.5,30.8,29.64,SSW,205,0.0,4.0,63,0.00,,,0.00,Wunderground v.1.15,2013-05-26 09:17:00,
2013-05-26 03:22:00,42.2,30.5,29.64,SSW,205,0.0,0.0,63,0.00,,,0.00,Wunderground v.1.15,2013-05-26 09:22:00,
2013-05-26 03:27:00,42.1,30.4,29.65,SSW,205,0.0,0.0,63,0.00,,,0.00,Wunderground v.1.15,2013-05-26 09:27:00,
2013-05-26 03:32:00,42.2,30.5,29.65,SSW,205,0.0,0.0,63,0.00,,,0.00,Wunderground v.1.15,2013-05-26 09:32:00,
2013-05-26 03:37:00,42.2,30.5,29.65,SSW,205,0.0,0.0,63,0.00,,,0.00,Wunderground v.1.15,2013-05-26 09:37:00,
2013-05-26 03:42:00,42.3,30.6,29.66,SSW,205,0.0,0.0,63,0.00,,,0.00,Wunderground v.1.15,2013-05-26 09:42:00,
2013-05-26 03:47:00,42.3,30.6,29.66,SSW,205,0.0,0.0,63,0.00,,,0.00,Wunderground v.1.15,2013-05-26 09:47:00,
2013-05-26 03:52:00,42.2,30.9,29.66,SSW,205,0.0,0.0,64,0.00,,,0.00,Wunderground v.1.15,2013-05-26 09:52:00,
2013-05-26 03:57:00,42.1,30.8,29.67,SSW,205,0.0,0.0,64,0.00,,,0.00,Wunderground v.1.15,2013-05-26 09:57:00,
2013-05-26 04:02:00,41.6,30.3,29.67,SSW,205,0.0,0.0,64,0.00,,,0.00,Wunderground v.1.15,2013-05-26 10:02:00,
2013-05-26 04:07:00,41.5,30.2,29.67,SSW,205,0.0,0.0,64,0.00,,,0.00,Wunderground v.1.15,2013-05-26 10:07:00,
2013-05-26 04:12:00,41.5,30.6,29.67,SSW,205,0.0,0.0,65,0.00,,,0.00,Wunderground v.1.15,2013-05-26 10:12:00,
2013-05-26 04:17:00,41.5,30.6,29.67,SSW,205,0.0,0.0,65,0.00,,,0.00,Wunderground v.1.15,2013-05-26 10:17:00,
2013-05-26 04:22:00,41.2,30.3,29.67,SSW,205,0.0,0.0,65,0.00,,,0.00,Wunderground v.1.15,2013-05-26 10:22:00,
2013-05-26 04:27:00,41.2,30.3,29.68,SSW,205,0.0,0.0,65,0.00,,,0.00,Wunderground v.1.15,2013-05-26 10:27:00,
2013-05-26 04:32:00,40.9,30.0,29.68,SSW,205,0.0,0.0,65,0.00,,,0.00,Wunderground v.1.15,2013-05-26 10:32:00,
2013-05-26 04:37:00,40.9,30.0,29.68,SSW,205,0.0,2.0,65,0.00,,,0.00,Wunderground v.1.15,2013-05-26 10:37:00,
2013-05-26 04:42:00,40.8,30.3,29.68,SSW,205,0.0,0.0,66,0.00,,,0.00,Wunderground v.1.15,2013-05-26 10:42:00,
2013-05-26 04:47:00,40.9,30.4,29.68,SSW,205,0.0,0.0,66,0.00,,,0.00,Wunderground v.1.15,2013-05-26 10:47:00,
2013-05-26 04:52:00,40.9,30.8,29.68,SSW,205,0.0,1.0,67,0.00,,,0.00,Wunderground v.1.15,2013-05-26 10:52:00,
2013-05-26 04:57:00,41.1,31.0,29.68,SSW,205,0.0,1.0,67,0.00,,,0.00,Wunderground v.1.15,2013-05-26 10:57:00,
2013-05-26 05:02:00,41.2,30.7,29.68,SSW,205,0.0,0.0,66,0.00,,,0.00,Wunderground v.1.15,2013-05-26 11:02:00,
2013-05-26 05:07:00,41.3,30.4,29.68,SSW,205,0.0,0.0,65,0.00,,,0.00,Wunderground v.1.15,2013-05-26 11:07:00,
2013-05-26 05:12:00,41.9,30.2,29.68,SSW,205,0.0,0.0,63,0.00,,,0.00,Wunderground v.1.15,2013-05-26 11:12:00,
2013-05-26 05:17:00,42.1,30.4,29.68,SSW,205,0.0,0.0,63,0.00,,,0.00,Wunderground v.1.15,2013-05-26 11:17:00,
2013-05-26 05:22:00,41.9,30.2,29.69,SSW,205,0.0,0.0,63,0.00,,,0.00,Wunderground v.1.15,2013-05-26 11:22:00,
2013-05-26 05:27:00,41.8,30.5,29.69,SSW,205,0.0,0.0,64,0.00,,,0.00,Wunderground v.1.15,2013-05-26 11:27:00,
2013-05-26 05:32:00,41.5,30.2,29.69,SSW,205,0.0,0.0,64,0.00,,,0.00,Wunderground v.1.15,2013-05-26 11:32:00,
2013-05-26 05:37:00,41.3,30.8,29.70,SSW,205,0.0,0.0,66,0.00,,,0.00,Wunderground v.1.15,2013-05-26 11:37:00,
2013-05-26 05:42:00,41.1,31.0,29.70,SSW,205,0.0,0.0,67,0.00,,,0.00,Wunderground v.1.15,2013-05-26 11:42:00,
2013-05-26 05:47:00,40.8,30.7,29.70,SSW,205,0.0,0.0,67,0.00,,,0.00,Wunderground v.1.15,2013-05-26 11:47:00,
2013-05-26 05:52:00,40.6,30.5,29.70,SSW,205,0.0,2.0,67,0.00,,,0.00,Wunderground v.1.15,2013-05-26 11:52:00,
2013-05-26 05:57:00,40.3,30.2,29.70,SSW,205,0.0,2.0,67,0.00,,,0.00,Wunderground v.1.15,2013-05-26 11:57:00,
2013-05-26 06:02:00,40.5,30.4,29.70,SSW,205,0.0,0.0,67,0.00,,,0.00,Wunderground v.1.15,2013-05-26 12:02:00,
2013-05-26 06:07:00,40.6,30.9,29.70,SSW,205,0.0,0.0,68,0.00,,,0.00,Wunderground v.1.15,2013-05-26 12:07:00,
2013-05-26 06:12:00,40.8,31.4,29.70,SSW,205,0.0,0.0,69,0.00,,,0.00,Wunderground v.1.15,2013-05-26 12:12:00,
2013-05-26 06:17:00,40.9,31.5,29.70,SSW,205,0.0,0.0,69,0.00,,,0.00,Wunderground v.1.15,2013-05-26 12:17:00,
2013-05-26 06:22:00,41.6,32.2,29.72,SSW,205,0.0,0.0,69,0.00,,,0.00,Wunderground v.1.15,2013-05-26 12:22:00,
2013-05-26 06:27:00,42.1,32.7,29.72,SSW,205,0.0,0.0,69,0.00,,,0.00,Wunderground v.1.15,2013-05-26 12:27:00,
2013-05-26 06:32:00,42.6,33.1,29.72,SSW,205,0.0,0.0,69,0.00,,,0.00,Wunderground v.1.15,2013-05-26 12:32:00,
2013-05-26 06:37:00,43.1,33.6,29.72,SSW,205,0.0,0.0,69,0.00,,,0.00,Wunderground v.1.15,2013-05-26 12:37:00,
2013-05-26 06:42:00,43.6,34.1,29.72,SSW,205,0.0,0.0,69,0.00,,,0.00,Wunderground v.1.15,2013-05-26 12:42:00,
2013-05-26 06:47:00,44.1,34.6,29.72,SSW,205,0.0,0.0,69,0.00,,,0.00,Wunderground v.1.15,2013-05-26 12:47:00,
2013-05-26 06:52:00,44.6,34.7,29.72,SSW,205,0.0,0.0,68,0.00,,,0.00,Wunderground v.1.15,2013-05-26 12:52:00,
2013-05-26 06:57:00,45.4,35.5,29.72,SSW,205,0.0,0.0,68,0.00,,,0.00,Wunderground v.1.15,2013-05-26 12:57:00,
2013-05-26 07:02:00,46.1,35.4,29.72,SSW,205,3.0,5.0,66,0.00,,,0.00,Wunderground v.1.15,2013-05-26 13:02:00,
2013-05-26 07:07:00,47.3,34.9,29.70,SSW,205,0.0,5.0,62,0.00,,,0.00,Wunderground v.1.15,2013-05-26 13:07:00,
2013-05-26 07:12:00,48.0,34.8,29.70,SSW,205,0.0,1.0,60,0.00,,,0.00,Wunderground v.1.15,2013-05-26 13:12:00,
2013-05-26 07:17:00,48.8,36.4,29.70,SSW,205,0.0,1.0,62,0.00,,,0.00,Wunderground v.1.15,2013-05-26 13:17:00,
2013-05-26 07:22:00,49.5,36.2,29.74,SSW,205,0.0,0.0,60,0.00,,,0.00,Wunderground v.1.15,2013-05-26 13:22:00,
2013-05-26 07:27:00,50.1,39.2,29.74,SSW,205,0.0,0.0,66,0.00,,,0.00,Wunderground v.1.15,2013-05-26 13:27:00,
2013-05-26 07:32:00,50.5,39.2,29.74,SSW,205,0.0,0.0,65,0.00,,,0.00,Wunderground v.1.15,2013-05-26 13:32:00,
2013-05-26 07:37:00,51.4,40.0,29.74,SSW,205,0.0,0.0,65,0.00,,,0.00,Wunderground v.1.15,2013-05-26 13:37:00,
2013-05-26 07:42:00,52.6,38.7,29.74,SSW,205,0.0,0.0,59,0.00,,,0.00,Wunderground v.1.15,2013-05-26 13:42:00,
2013-05-26 07:47:00,54.2,36.5,29.74,SSW,205,0.0,0.0,51,0.00,,,0.00,Wunderground v.1.15,2013-05-26 13:47:00,
2013-05-26 07:52:00,55.6,36.2,29.72,SSW,205,0.0,0.0,48,0.00,,,0.00,Wunderground v.1.15,2013-05-26 13:52:00,
2013-05-26 07:57:00,56.6,32.5,29.72,SSW,205,0.0,0.0,40,0.00,,,0.00,Wunderground v.1.15,2013-05-26 13:57:00,
2013-05-26 08:02:00,57.5,35.2,29.72,SSW,205,0.0,0.0,43,0.00,,,0.00,Wunderground v.1.15,2013-05-26 14:02:00,
2013-05-26 08:07:00,58.3,37.0,29.72,SSW,205,0.0,0.0,45,0.00,,,0.00,Wunderground v.1.15,2013-05-26 14:07:00,
2013-05-26 08:12:00,58.9,35.8,29.72,SSW,205,0.0,2.0,42,0.00,,,0.00,Wunderground v.1.15,2013-05-26 14:12:00,
2013-05-26 08:17:00,59.3,35.6,29.72,SSW,205,0.0,2.0,41,0.00,,,0.00,Wunderground v.1.15,2013-05-26 14:17:00,
2013-05-26 08:23:00,59.8,34.8,29.72,SSW,205,0.0,0.0,39,0.00,,,0.00,Wunderground v.1.15,2013-05-26 14:23:00,
2013-05-26 08:28:00,60.4,34.0,29.72,SSW,205,0.0,0.0,37,0.00,,,0.00,Wunderground v.1.15,2013-05-26 14:28:00,
2013-05-26 08:33:00,61.2,33.3,29.72,SSW,205,0.0,0.0,35,0.00,,,0.00,Wunderground v.1.15,2013-05-26 14:33:00,
2013-05-26 08:38:00,62.3,31.3,29.71,SSW,205,0.0,0.0,31,0.00,,,0.00,Wunderground v.1.15,2013-05-26 14:38:00,
2013-05-26 08:43:00,63.5,32.3,29.71,SSW,205,0.0,0.0,31,0.00,,,0.00,Wunderground v.1.15,2013-05-26 14:43:00,
2013-05-26 08:48:00,64.7,29.0,29.71,SSW,205,0.0,0.0,26,0.00,,,0.00,Wunderground v.1.15,2013-05-26 14:48:00,
2013-05-26 08:53:00,66.1,27.2,29.70,SSW,205,0.0,0.0,23,0.00,,,0.00,Wunderground v.1.15,2013-05-26 14:53:00,
2013-05-26 08:58:00,67.4,27.2,29.70,SSW,205,0.0,0.0,22,0.00,,,0.00,Wunderground v.1.15,2013-05-26 14:58:00,
2013-05-26 09:03:00,68.4,29.1,29.70,SSW,205,0.0,0.0,23,0.00,,,0.00,Wunderground v.1.15,2013-05-26 15:03:00,
2013-05-26 09:08:00,69.3,28.8,29.68,SSW,205,0.0,3.0,22,0.00,,,0.00,Wunderground v.1.15,2013-05-26 15:08:00,
2013-05-26 09:13:00,69.8,29.2,29.68,ENE,63,4.0,4.0,22,0.00,,,0.00,Wunderground v.1.15,2013-05-26 15:13:00,
2013-05-26 09:18:00,69.9,28.2,29.68,NE,56,0.0,4.0,21,0.00,,,0.00,Wunderground v.1.15,2013-05-26 15:18:00,
2013-05-26 09:23:00,70.3,28.5,29.67,NE,56,0.0,3.0,21,0.00,,,0.00,Wunderground v.1.15,2013-05-26 15:23:00,
2013-05-26 09:28:00,70.8,28.9,29.67,NE,56,2.0,3.0,21,0.00,,,0.00,Wunderground v.1.15,2013-05-26 15:28:00,
2013-05-26 09:33:00,71.1,28.0,29.67,NE,56,1.0,2.0,20,0.00,,,0.00,Wunderground v.1.15,2013-05-26 15:33:00,
2013-05-26 09:38:00,71.6,29.6,29.65,NE,55,0.0,3.0,21,0.00,,,0.00,Wunderground v.1.15,2013-05-26 15:38:00,
2013-05-26 09:43:00,71.8,28.5,29.65,NE,47,0.0,1.0,20,0.00,,,0.00,Wunderground v.1.15,2013-05-26 15:43:00,
2013-05-26 09:48:00,72.3,29.0,29.65,NNW,347,0.0,8.0,20,0.00,,,0.00,Wunderground v.1.15,2013-05-26 15:48:00,
2013-05-26 09:53:00,72.5,30.3,29.65,NNW,344,3.0,6.0,21,0.00,,,0.00,Wunderground v.1.15,2013-05-26 15:53:00,
2013-05-26 09:58:00,72.8,29.4,29.65,NW,304,4.0,7.0,20,0.00,,,0.00,Wunderground v.1.15,2013-05-26 15:58:00,
2013-05-26 10:03:00,73.3,32.1,29.65,North,355,7.0,7.0,22,0.00,,,0.00,Wunderground v.1.15,2013-05-26 16:03:00,
2013-05-26 10:08:00,73.0,31.9,29.65,NW,313,9.0,9.0,22,0.00,,,0.00,Wunderground v.1.15,2013-05-26 16:08:00,
2013-05-26 10:13:00,72.7,31.6,29.65,NW,316,1.0,5.0,22,0.00,,,0.00,Wunderground v.1.15,2013-05-26 16:13:00,
2013-05-26 10:18:00,73.2,29.7,29.65,WNW,296,2.0,5.0,20,0.00,,,0.00,Wunderground v.1.15,2013-05-26 16:18:00,
2013-05-26 10:23:00,73.9,30.3,29.64,WNW,282,0.0,6.0,20,0.00,,,0.00,Wunderground v.1.15,2013-05-26 16:23:00,
2013-05-26 10:28:00,74.6,28.3,29.64,North,360,0.0,6.0,18,0.00,,,0.00,Wunderground v.1.15,2013-05-26 16:28:00,
2013-05-26 10:33:00,74.9,25.6,29.64,NNW,342,0.0,8.0,16,0.00,,,0.00,Wunderground v.1.15,2013-05-26 16:33:00,
2013-05-26 10:38:00,75.4,30.2,29.64,NNW,345,3.0,8.0,19,0.00,,,0.00,Wunderground v.1.15,2013-05-26 16:38:00,
2013-05-26 10:43:00,75.6,27.7,29.64,WNW,300,0.0,3.0,17,0.00,,,0.00,Wunderground v.1.15,2013-05-26 16:43:00,
2013-05-26 10:48:00,76.5,26.9,29.64,North,360,7.0,9.0,16,0.00,,,0.00,Wunderground v.1.15,2013-05-26 16:48:00,
2013-05-26 10:53:00,76.8,27.2,29.63,NNE,13,5.0,7.0,16,0.00,,,0.00,Wunderground v.1.15,2013-05-26 16:53:00,
2013-05-26 10:58:00,77.0,22.4,29.63,North,349,2.0,7.0,13,0.00,,,0.00,Wunderground v.1.15,2013-05-26 16:58:00,
2013-05-26 11:03:00,77.6,22.8,29.63,NNW,331,5.0,8.0,13,0.00,,,0.00,Wunderground v.1.15,2013-05-26 17:03:00,
2013-05-26 11:08:00,77.7,24.7,29.62,WNW,300,4.0,10.0,14,0.00,,,0.00,Wunderground v.1.15,2013-05-26 17:08:00,
2013-05-26 11:13:00,78.1,25.0,29.62,NNW,348,5.0,6.0,14,0.00,,,0.00,Wunderground v.1.15,2013-05-26 17:13:00,
2013-05-26 11:18:00,78.3,23.4,29.62,WNW,300,6.0,11.0,13,0.00,,,0.00,Wunderground v.1.15,2013-05-26 17:18:00,
2013-05-26 11:23:00,78.1,23.2,29.68,NNW,331,5.0,11.0,13,0.00,,,0.00,Wunderground v.1.15,2013-05-26 17:23:00,
2013-05-26 11:28:00,77.9,21.2,29.68,NNW,343,6.0,11.0,12,0.00,,,0.00,Wunderground v.1.15,2013-05-26 17:28:00,
2013-05-26 11:33:00,77.7,22.9,29.68,NNW,343,5.0,7.0,13,0.00,,,0.00,Wunderground v.1.15,2013-05-26 17:33:00,
2013-05-26 11:38:00,77.6,22.8,29.68,North,355,3.0,9.0,13,0.00,,,0.00,Wunderground v.1.15,2013-05-26 17:38:00,
2013-05-26 11:43:00,77.7,22.9,29.68,NNW,347,2.0,9.0,13,0.00,,,0.00,Wunderground v.1.15,2013-05-26 17:43:00,
2013-05-26 11:48:00,78.3,21.5,29.68,North,11,10.0,10.0,12,0.00,,,0.00,Wunderground v.1.15,2013-05-26 17:48:00,
2013-05-26 11:53:00,77.9,23.1,29.68,North,355,5.0,12.0,13,0.00,,,0.00,Wunderground v.1.15,2013-05-26 17:53:00,
2013-05-26 11:58:00,78.1,23.2,29.68,North,350,6.0,12.0,13,0.00,,,0.00,Wunderground v.1.15,2013-05-26 17:58:00,
2013-05-26 12:03:00,78.1,23.2,29.68,WNW,300,4.0,10.0,13,0.00,,,0.00,Wunderground v.1.15,2013-05-26 18:03:00,
2013-05-26 12:08:00,78.6,21.7,29.67,North,349,0.0,10.0,12,0.00,,,0.00,Wunderground v.1.15,2013-05-26 18:08:00,
2013-05-26 12:13:00,78.6,21.7,29.67,North,355,5.0,10.0,12,0.00,,,0.00,Wunderground v.1.15,2013-05-26 18:13:00,
2013-05-26 12:18:00,78.8,25.5,29.67,NNW,344,4.0,10.0,14,0.00,,,0.00,Wunderground v.1.15,2013-05-26 18:18:00,
2013-05-26 12:23:00,79.4,26.0,29.67,NW,306,6.0,7.0,14,0.00,,,0.00,Wunderground v.1.15,2013-05-26 18:23:00,
2013-05-26 12:28:00,80.3,23.0,29.67,North,5,3.0,10.0,12,0.00,,,0.00,Wunderground v.1.15,2013-05-26 18:28:00,
2013-05-26 12:33:00,80.9,25.4,29.67,WNW,296,0.0,6.0,13,0.00,,,0.00,Wunderground v.1.15,2013-05-26 18:33:00,
2013-05-26 12:38:00,81.1,21.6,29.66,NNW,348,2.0,11.0,11,0.00,,,0.00,Wunderground v.1.15,2013-05-26 18:38:00,
2013-05-26 12:43:00,81.1,21.6,29.66,NNE,22,5.0,11.0,11,0.00,,,0.00,Wunderground v.1.15,2013-05-26 18:43:00,
2013-05-26 12:48:00,81.1,23.7,29.66,North,355,10.0,12.0,12,0.00,,,0.00,Wunderground v.1.15,2013-05-26 18:48:00,
2013-05-26 12:53:00,81.8,26.1,29.65,NW,312,5.0,10.0,13,0.00,,,0.00,Wunderground v.1.15,2013-05-26 18:53:00,
2013-05-26 12:58:00,82.4,22.6,29.65,North,5,5.0,10.0,11,0.00,,,0.00,Wunderground v.1.15,2013-05-26 18:58:00,
2013-05-26 13:03:00,82.0,22.3,29.65,North,5,2.0,5.0,11,0.00,,,0.00,Wunderground v.1.15,2013-05-26 19:03:00,
2013-05-26 13:08:00,82.0,22.3,29.64,ESE,123,5.0,7.0,11,0.00,,,0.00,Wunderground v.1.15,2013-05-26 19:08:00,
2013-05-26 13:13:00,82.8,22.9,29.64,NE,54,3.0,5.0,11,0.00,,,0.00,Wunderground v.1.15,2013-05-26 19:13:00,
2013-05-26 13:18:00,82.6,20.5,29.64,NNE,24,0.0,9.0,10,0.00,,,0.00,Wunderground v.1.15,2013-05-26 19:18:00,
2013-05-26 13:23:00,83.0,25.1,29.65,WNW,297,3.0,8.0,12,0.00,,,0.00,Wunderground v.1.15,2013-05-26 19:23:00,
2013-05-26 13:28:00,83.6,23.5,29.65,NW,316,0.0,8.0,11,0.00,,,0.00,Wunderground v.1.15,2013-05-26 19:28:00,
2013-05-26 13:33:00,84.0,21.5,29.65,NNW,342,7.0,12.0,10,0.00,,,0.00,Wunderground v.1.15,2013-05-26 19:33:00,
2013-05-26 13:38:00,84.3,26.1,29.63,NNW,335,1.0,12.0,12,0.00,,,0.00,Wunderground v.1.15,2013-05-26 19:38:00,
2013-05-26 13:43:00,85.3,24.8,29.63,WNW,298,7.0,8.0,11,0.00,,,0.00,Wunderground v.1.15,2013-05-26 19:43:00,
2013-05-26 13:48:00,85.3,24.8,29.63,WSW,240,1.0,11.0,11,0.00,,,0.00,Wunderground v.1.15,2013-05-26 19:48:00,
2013-05-26 13:53:00,85.1,24.7,29.63,West,267,0.0,10.0,11,0.00,,,0.00,Wunderground v.1.15,2013-05-26 19:53:00,
2013-05-26 13:58:00,85.1,24.7,29.63,NNW,327,1.0,10.0,11,0.00,,,0.00,Wunderground v.1.15,2013-05-26 19:58:00,
2013-05-26 14:03:00,84.7,24.4,29.63,WSW,240,6.0,6.0,11,0.00,,,0.00,Wunderground v.1.15,2013-05-26 20:03:00,
2013-05-26 14:08:00,84.7,22.1,29.63,SW,221,0.0,9.0,10,0.00,,,0.00,Wunderground v.1.15,2013-05-26 20:08:00,
2013-05-26 14:13:00,85.5,17.4,29.63,SW,221,0.0,3.0,8,0.00,,,0.00,Wunderground v.1.15,2013-05-26 20:13:00,
2013-05-26 14:19:00,85.9,17.7,29.63,South,189,1.0,8.0,8,0.00,,,0.00,Wunderground v.1.15,2013-05-26 20:19:00,
2013-05-26 14:24:00,86.1,23.1,29.62,SW,222,8.0,15.0,10,0.00,,,0.00,Wunderground v.1.15,2013-05-26 20:24:00,
2013-05-26 14:29:00,86.1,23.1,29.62,NW,310,4.0,15.0,10,0.00,,,0.00,Wunderground v.1.15,2013-05-26 20:29:00,
2013-05-26 14:34:00,86.1,17.9,29.62,NNE,18,1.0,14.0,8,0.00,,,0.00,Wunderground v.1.15,2013-05-26 20:34:00,
2013-05-26 14:39:00,85.9,14.7,29.63,SW,234,6.0,14.0,7,0.00,,,0.00,Wunderground v.1.15,2013-05-26 20:39:00,
2013-05-26 14:44:00,86.1,14.8,29.63,SW,227,0.0,15.0,7,0.00,,,0.00,Wunderground v.1.15,2013-05-26 20:44:00,
2013-05-26 14:49:00,86.1,17.9,29.63,South,183,9.0,15.0,8,0.00,,,0.00,Wunderground v.1.15,2013-05-26 20:49:00,
2013-05-26 14:54:00,85.9,14.7,29.63,SSE,163,8.0,12.0,7,0.00,,,0.00,Wunderground v.1.15,2013-05-26 20:54:00,
2013-05-26 14:59:00,86.7,18.3,29.63,WSW,248,5.0,12.0,8,0.00,,,0.00,Wunderground v.1.15,2013-05-26 20:59:00,
2013-05-26 15:04:00,87.4,15.8,29.63,SW,229,3.0,9.0,7,0.00,,,0.00,Wunderground v.1.15,2013-05-26 21:04:00,
2013-05-26 15:09:00,87.6,19.0,29.61,WNW,290,4.0,15.0,8,0.00,,,0.00,Wunderground v.1.15,2013-05-26 21:09:00,
2013-05-26 15:14:00,87.2,21.5,29.61,SW,236,10.0,10.0,9,0.00,,,0.00,Wunderground v.1.15,2013-05-26 21:14:00,
2013-05-26 15:19:00,87.2,18.7,29.61,NW,316,4.0,11.0,8,0.00,,,0.00,Wunderground v.1.15,2013-05-26 21:19:00,
2013-05-26 15:24:00,87.8,19.1,29.60,East,100,3.0,7.0,8,0.00,,,0.00,Wunderground v.1.15,2013-05-26 21:24:00,
2013-05-26 15:29:00,87.6,24.3,29.60,SSW,213,0.0,15.0,10,0.00,,,0.00,Wunderground v.1.15,2013-05-26 21:29:00,
2013-05-26 15:34:00,87.6,28.7,29.60,WNW,293,2.0,10.0,12,0.00,,,0.00,Wunderground v.1.15,2013-05-26 21:34:00,
2013-05-26 15:39:00,87.8,24.4,29.60,WSW,246,5.0,12.0,10,0.00,,,0.00,Wunderground v.1.15,2013-05-26 21:39:00,
2013-05-26 15:44:00,87.6,24.3,29.60,NNW,342,9.0,9.0,10,0.00,,,0.00,Wunderground v.1.15,2013-05-26 21:44:00,
2013-05-26 15:49:00,87.2,21.5,29.60,NW,315,7.0,15.0,9,0.00,,,0.00,Wunderground v.1.15,2013-05-26 21:49:00,
2013-05-26 15:54:00,88.0,22.1,29.59,WSW,246,3.0,9.0,9,0.00,,,0.00,Wunderground v.1.15,2013-05-26 21:54:00,
2013-05-26 15:59:00,88.6,22.5,29.59,SSW,206,0.0,9.0,9,0.00,,,0.00,Wunderground v.1.15,2013-05-26 21:59:00,
2013-05-26 16:04:00,88.4,19.6,29.59,SSE,159,5.0,15.0,8,0.00,,,0.00,Wunderground v.1.15,2013-05-26 22:04:00,
2013-05-26 16:09:00,88.4,19.6,29.59,West,260,2.0,15.0,8,0.00,,,0.00,Wunderground v.1.15,2013-05-26 22:09:00,
2013-05-26 16:14:00,88.2,22.2,29.59,North,5,1.0,5.0,9,0.00,,,0.00,Wunderground v.1.15,2013-05-26 22:14:00,
2013-05-26 16:19:00,88.0,16.2,29.59,East,94,0.0,11.0,7,0.00,,,0.00,Wunderground v.1.15,2013-05-26 22:19:00,
2013-05-26 16:24:00,88.4,16.5,29.58,WSW,237,1.0,4.0,7,0.00,,,0.00,Wunderground v.1.15,2013-05-26 22:24:00,
2013-05-26 16:29:00,88.4,16.5,29.58,ESE,111,2.0,9.0,7,0.00,,,0.00,Wunderground v.1.15,2013-05-26 22:29:00,
2013-05-26 16:34:00,87.6,19.0,29.58,SSW,210,2.0,18.0,8,0.00,,,0.00,Wunderground v.1.15,2013-05-26 22:34:00,
2013-05-26 16:39:00,87.8,21.9,29.58,SW,236,12.0,18.0,9,0.00,,,0.00,Wunderground v.1.15,2013-05-26 22:39:00,
2013-05-26 16:44:00,88.2,24.7,29.58,NNW,348,5.0,12.0,10,0.00,,,0.00,Wunderground v.1.15,2013-05-26 22:44:00,
2013-05-26 16:49:00,88.0,22.1,29.58,SW,229,6.0,17.0,9,0.00,,,0.00,Wunderground v.1.15,2013-05-26 22:49:00,
2013-05-26 16:54:00,87.6,19.0,29.58,SW,223,5.0,16.0,8,0.00,,,0.00,Wunderground v.1.15,2013-05-26 22:54:00,
2013-05-26 16:59:00,87.4,18.9,29.58,SE,145,0.0,16.0,8,0.00,,,0.00,Wunderground v.1.15,2013-05-26 22:59:00,
2013-05-26 17:04:00,87.4,15.8,29.58,South,184,11.0,17.0,7,0.00,,,0.00,Wunderground v.1.15,2013-05-26 23:04:00,
2013-05-26 17:09:00,87.2,18.7,29.59,SSW,199,7.0,17.0,8,0.00,,,0.00,Wunderground v.1.15,2013-05-26 23:09:00,
2013-05-26 17:14:00,86.7,18.3,29.59,South,190,1.0,10.0,8,0.00,,,0.00,Wunderground v.1.15,2013-05-26 23:14:00,
2013-05-26 17:19:00,86.7,15.2,29.59,SSE,167,13.0,17.0,7,0.00,,,0.00,Wunderground v.1.15,2013-05-26 23:19:00,
2013-05-26 17:24:00,86.3,15.0,29.58,SSW,196,0.0,15.0,7,0.00,,,0.00,Wunderground v.1.15,2013-05-26 23:24:00,
2013-05-26 17:29:00,86.3,15.0,29.58,SSE,153,11.0,18.0,7,0.00,,,0.00,Wunderground v.1.15,2013-05-26 23:29:00,
2013-05-26 17:34:00,86.1,14.8,29.58,South,179,1.0,13.0,7,0.00,,,0.00,Wunderground v.1.15,2013-05-26 23:34:00,
2013-05-26 17:39:00,86.1,17.9,29.58,SSW,205,1.0,13.0,8,0.00,,,0.00,Wunderground v.1.15,2013-05-26 23:39:00,
2013-05-26 17:44:00,86.7,15.2,29.58,SSE,150,1.0,13.0,7,0.00,,,0.00,Wunderground v.1.15,2013-05-26 23:44:00,
2013-05-26 17:49:00,86.1,17.9,29.58,SSW,196,7.0,14.0,8,0.00,,,0.00,Wunderground v.1.15,2013-05-26 23:49:00,
2013-05-26 17:54:00,85.3,17.3,29.58,South,175,8.0,15.0,8,0.00,,,0.00,Wunderground v.1.15,2013-05-26 23:54:00,
2013-05-26 17:59:00,85.5,17.4,29.58,South,175,3.0,15.0,8,0.00,,,0.00,Wunderground v.1.15,2013-05-26 23:59:00,
2013-05-26 18:04:00,85.7,17.6,29.58,South,170,7.0,11.0,8,0.00,,,0.00,Wunderground v.1.15,2013-05-27 00:04:00,
2013-05-26 18:09:00,85.5,17.4,29.58,SE,146,6.0,20.0,8,0.00,,,0.00,Wunderground v.1.15,2013-05-27 00:09:00,
2013-05-26 18:14:00,85.1,17.1,29.58,South,178,1.0,14.0,8,0.00,,,0.00,Wunderground v.1.15,2013-05-27 00:14:00,
2013-05-26 18:19:00,85.3,17.3,29.58,SW,220,5.0,15.0,8,0.00,,,0.00,Wunderground v.1.15,2013-05-27 00:19:00,
2013-05-26 18:24:00,84.7,16.8,29.55,South,186,4.0,18.0,8,0.00,,,0.00,Wunderground v.1.15,2013-05-27 00:24:00,
2013-05-26 18:29:00,84.5,16.7,29.55,South,181,9.0,18.0,8,0.00,,,0.00,Wunderground v.1.15,2013-05-27 00:29:00,
2013-05-26 18:34:00,84.0,19.1,29.55,SSW,207,9.0,11.0,9,0.00,,,0.00,Wunderground v.1.15,2013-05-27 00:34:00,
2013-05-26 18:39:00,83.8,16.2,29.55,South,185,5.0,17.0,8,0.00,,,0.00,Wunderground v.1.15,2013-05-27 00:39:00,
2013-05-26 18:44:00,83.6,18.8,29.55,SSW,212,11.0,15.0,9,0.00,,,0.00,Wunderground v.1.15,2013-05-27 00:44:00,
2013-05-26 18:49:00,83.6,16.0,29.55,SSW,195,6.0,15.0,8,0.00,,,0.00,Wunderground v.1.15,2013-05-27 00:49:00,
2013-05-26 18:54:00,83.4,18.6,29.56,SW,222,6.0,13.0,9,0.00,,,0.00,Wunderground v.1.15,2013-05-27 00:54:00,
2013-05-26 18:59:00,83.4,15.9,29.56,SSE,153,10.0,14.0,8,0.00,,,0.00,Wunderground v.1.15,2013-05-27 00:59:00,
2013-05-26 19:04:00,83.4,15.9,29.56,SW,229,5.0,14.0,8,0.00,,,0.00,Wunderground v.1.15,2013-05-27 01:04:00,
2013-05-26 19:09:00,83.2,15.7,29.55,SSW,196,3.0,14.0,8,0.00,,,0.00,Wunderground v.1.15,2013-05-27 01:09:00,
2013-05-26 19:14:00,82.8,15.4,29.55,South,184,9.0,17.0,8,0.00,,,0.00,Wunderground v.1.15,2013-05-27 01:14:00,
2013-05-26 19:19:00,82.6,15.3,29.55,South,183,6.0,17.0,8,0.00,,,0.00,Wunderground v.1.15,2013-05-27 01:19:00,
2013-05-26 19:24:00,82.2,15.0,29.51,SSE,163,7.0,11.0,8,0.00,,,0.00,Wunderground v.1.15,2013-05-27 01:24:00,
2013-05-26 19:29:00,82.0,14.8,29.51,South,175,5.0,16.0,8,0.00,,,0.00,Wunderground v.1.15,2013-05-27 01:29:00,
2013-05-26 19:34:00,81.8,14.7,29.51,SSE,166,5.0,15.0,8,0.00,,,0.00,Wunderground v.1.15,2013-05-27 01:34:00,
2013-05-26 19:39:00,81.6,14.5,29.51,South,169,9.0,15.0,8,0.00,,,0.00,Wunderground v.1.15,2013-05-27 01:39:00,
2013-05-26 19:44:00,81.4,14.4,29.51,South,171,8.0,14.0,8,0.00,,,0.00,Wunderground v.1.15,2013-05-27 01:44:00,
2013-05-26 19:49:00,81.2,14.2,29.51,SSW,211,6.0,14.0,8,0.00,,,0.00,Wunderground v.1.15,2013-05-27 01:49:00,
2013-05-26 19:54:00,81.2,14.2,29.52,SSE,155,4.0,11.0,8,0.00,,,0.00,Wunderground v.1.15,2013-05-27 01:54:00,
2013-05-26 19:59:00,80.9,14.0,29.52,SSW,203,0.0,11.0,8,0.00,,,0.00,Wunderground v.1.15,2013-05-27 01:59:00,
2013-05-26 20:04:00,80.3,16.3,29.52,South,184,3.0,6.0,9,0.00,,,0.00,Wunderground v.1.15,2013-05-27 02:04:00,
2013-05-26 20:09:00,79.8,15.9,29.52,SW,217,8.0,9.0,9,0.00,,,0.00,Wunderground v.1.15,2013-05-27 02:09:00,
2013-05-26 20:14:00,79.6,15.8,29.52,SW,220,9.0,11.0,9,0.00,,,0.00,Wunderground v.1.15,2013-05-27 02:14:00,
2013-05-26 20:19:00,79.2,15.5,29.52,SSW,195,5.0,11.0,9,0.00,,,0.00,Wunderground v.1.15,2013-05-27 02:19:00,
2013-05-26 20:24:00,78.8,15.1,29.48,SSW,212,3.0,8.0,9,0.00,,,0.00,Wunderground v.1.15,2013-05-27 02:24:00,
2013-05-26 20:29:00,78.6,17.4,29.48,SW,227,7.0,10.0,10,0.00,,,0.00,Wunderground v.1.15,2013-05-27 02:29:00,
2013-05-26 20:34:00,78.3,17.2,29.48,SSW,205,3.0,11.0,10,0.00,,,0.00,Wunderground v.1.15,2013-05-27 02:34:00,
2013-05-26 20:39:00,78.5,14.9,29.48,SW,217,6.0,14.0,9,0.00,,,0.00,Wunderground v.1.15,2013-05-27 02:39:00,
2013-05-26 20:44:00,78.3,17.2,29.48,WSW,244,3.0,13.0,10,0.00,,,0.00,Wunderground v.1.15,2013-05-27 02:44:00,
2013-05-26 20:49:00,77.9,16.9,29.48,SW,215,1.0,13.0,10,0.00,,,0.00,Wunderground v.1.15,2013-05-27 02:49:00,
2013-05-26 20:54:00,77.6,16.7,29.50,SW,230,2.0,10.0,10,0.00,,,0.00,Wunderground v.1.15,2013-05-27 02:54:00,
2013-05-26 20:59:00,77.0,16.2,29.50,South,179,1.0,10.0,10,0.00,,,0.00,Wunderground v.1.15,2013-05-27 02:59:00,
2013-05-26 21:05:00,76.5,15.8,29.50,SSW,209,0.0,5.0,10,0.00,,,0.00,Wunderground v.1.15,2013-05-27 03:05:00,
2013-05-26 21:09:00,76.1,15.5,29.51,SSW,202,4.0,6.0,10,0.00,,,0.00,Wunderground v.1.15,2013-05-27 03:09:00,
2013-05-26 21:14:00,76.0,15.4,29.51,SW,219,1.0,7.0,10,0.00,,,0.00,Wunderground v.1.15,2013-05-27 03:14:00,
2013-05-26 21:20:00,75.6,17.3,29.51,SW,219,1.0,7.0,11,0.00,,,0.00,Wunderground v.1.15,2013-05-27 03:20:00,
2013-05-26 21:25:00,75.1,17.0,29.50,SW,219,1.0,3.0,11,0.00,,,0.00,Wunderground v.1.15,2013-05-27 03:25:00,
2013-05-26 21:30:00,74.2,16.3,29.50,SW,223,0.0,3.0,11,0.00,,,0.00,Wunderground v.1.15,2013-05-27 03:30:00,
2013-05-26 21:35:00,73.2,15.5,29.50,SW,222,0.0,4.0,11,0.00,,,0.00,Wunderground v.1.15,2013-05-27 03:35:00,
2013-05-26 21:40:00,72.1,16.6,29.52,SW,222,0.0,0.0,12,0.00,,,0.00,Wunderground v.1.15,2013-05-27 03:40:00,
2013-05-26 21:45:00,71.3,17.9,29.52,SW,222,0.0,0.0,13,0.00,,,0.00,Wunderground v.1.15,2013-05-27 03:45:00,
2013-05-26 21:50:00,70.8,15.6,29.52,SW,222,0.0,0.0,12,0.00,,,0.00,Wunderground v.1.15,2013-05-27 03:50:00,
2013-05-26 21:55:00,70.6,13.5,29.53,SW,222,0.0,2.0,11,0.00,,,0.00,Wunderground v.1.15,2013-05-27 03:55:00,
2013-05-26 22:00:00,70.6,15.5,29.53,SE,134,1.0,2.0,12,0.00,,,0.00,Wunderground v.1.15,2013-05-27 04:00:00,
2013-05-26 22:01:00,70.6,15.5,29.53,SE,134,1.0,2.0,12,0.00,,,0.00,Wunderground v.1.15,2013-05-27 04:01:00,
2013-05-26 22:06:00,70.6,19.0,29.53,SE,136,0.0,2.0,14,0.00,,,0.00,Wunderground v.1.15,2013-05-27 04:06:00,
2013-05-26 22:11:00,68.1,23.0,29.54,SE,136,0.0,1.0,18,0.00,,,0.00,Wunderground v.1.15,2013-05-27 04:11:00,
2013-05-26 22:16:00,66.9,20.6,29.54,SE,136,0.0,1.0,17,0.00,,,0.00,Wunderground v.1.15,2013-05-27 04:16:00,
2013-05-26 22:21:00,65.3,20.7,29.54,SE,136,0.0,0.0,18,0.00,,,0.00,Wunderground v.1.15,2013-05-27 04:21:00,
2013-05-26 22:26:00,63.4,19.1,29.54,SE,136,0.0,0.0,18,0.00,,,0.00,Wunderground v.1.15,2013-05-27 04:26:00,
2013-05-26 22:31:00,62.0,23.7,29.54,SE,137,4.0,4.0,23,0.00,,,0.00,Wunderground v.1.15,2013-05-27 04:31:00,
2013-05-26 22:36:00,60.9,20.7,29.54,SE,139,0.0,5.0,21,0.00,,,0.00,Wunderground v.1.15,2013-05-27 04:36:00,
2013-05-26 22:41:00,60.9,18.3,29.56,SE,142,1.0,3.0,19,0.00,,,0.00,Wunderground v.1.15,2013-05-27 04:41:00,
2013-05-26 22:46:00,60.7,16.9,29.56,SE,142,0.0,3.0,18,0.00,,,0.00,Wunderground v.1.15,2013-05-27 04:46:00,
2013-05-26 22:51:00,61.0,21.8,29.56,SSW,198,0.0,1.0,22,0.00,,,0.00,Wunderground v.1.15,2013-05-27 04:51:00,
2013-05-26 22:56:00,61.2,19.8,29.56,SSE,151,0.0,6.0,20,0.00,,,0.00,Wunderground v.1.15,2013-05-27 04:56:00,
2013-05-26 23:01:00,61.3,16.1,29.56,SE,133,0.0,1.0,17,0.00,,,0.00,Wunderground v.1.15,2013-05-27 05:01:00,
2013-05-26 23:06:00,60.1,21.1,29.56,SE,133,0.0,2.0,22,0.00,,,0.00,Wunderground v.1.15,2013-05-27 05:06:00,
2013-05-26 23:12:00,59.0,22.2,29.56,SE,133,0.0,0.0,24,0.00,,,0.00,Wunderground v.1.15,2013-05-27 05:12:00,
2013-05-26 23:17:00,59.6,20.7,29.56,SSE,163,0.0,5.0,22,0.00,,,0.00,Wunderground v.1.15,2013-05-27 05:17:00,
2013-05-26 23:22:00,60.9,19.5,29.56,SSW,208,2.0,2.0,20,0.00,,,0.00,Wunderground v.1.15,2013-05-27 05:22:00,
2013-05-26 23:27:00,60.9,18.3,29.55,North,5,0.0,9.0,19,0.00,,,0.00,Wunderground v.1.15,2013-05-27 05:27:00,
2013-05-26 23:32:00,59.9,24.9,29.55,SW,225,1.0,2.0,26,0.00,,,0.00,Wunderground v.1.15,2013-05-27 05:32:00,
2013-05-26 23:37:00,60.4,24.4,29.55,SW,214,5.0,6.0,25,0.00,,,0.00,Wunderground v.1.15,2013-05-27 05:37:00,
2013-05-26 23:42:00,60.1,22.1,29.56,SSW,207,0.0,3.0,23,0.00,,,0.00,Wunderground v.1.15,2013-05-27 05:42:00,
2013-05-26 23:47:00,59.3,25.3,29.56,SSW,206,1.0,3.0,27,0.00,,,0.00,Wunderground v.1.15,2013-05-27 05:47:00,
2013-05-26 23:52:00,58.4,25.4,29.56,SSW,194,0.0,3.0,28,0.00,,,0.00,Wunderground v.1.15,2013-05-27 05:52:00,
2013-05-26 23:57:00,59.0,24.1,29.57,ESE,103,0.0,3.0,26,0.00,,,0.00,Wunderground v.1.15,2013-05-27 05:57:00,